Time;durP1;ratioP1;P1;durP2;ratioP2;P2;SDS_P1;SDS_P2;PMS_P1;PMS_P2;Temp;Humidity;BMP_temperature;BMP_pressure;BME280_temperature;BME280_humidity;BME280_pressure;Samples;Min_cycle;Max_cycle;Signal;HPM_P1;HPM_P2
2023/06/23 00:00:37;;;;;;;10.10;8.87;;;16.80;99.90;;;;;;5096791;28;20574;-82
2023/06/23 00:03:02;;;;;;;13.10;10.00;;;16.70;99.90;;;;;;5096927;28;20736;-82
2023/06/23 00:05:28;;;;;;;10.57;9.03;;;16.70;99.90;;;;;;5096478;28;20181;-82
2023/06/23 00:07:54;;;;;;;14.67;9.47;;;16.70;99.90;;;;;;5097782;28;20254;-81
2023/06/23 00:10:20;;;;;;;12.27;9.07;;;16.70;99.90;;;;;;5097219;28;20193;-82
2023/06/23 00:12:45;;;;;;;16.27;10.03;;;16.70;99.90;;;;;;5096842;28;20194;-82
2023/06/23 00:15:15;;;;;;;11.43;9.70;;;16.70;99.90;;;;;;5098993;28;20170;-82
2023/06/23 00:17:46;;;;;;;11.50;9.00;;;16.70;99.90;;;;;;5099030;28;20249;-83
2023/06/23 00:20:14;;;;;;;12.97;10.07;;;16.70;99.90;;;;;;5097368;28;20605;-82
2023/06/23 00:22:41;;;;;;;9.80;8.47;;;16.70;99.90;;;;;;5099122;28;20174;-83
2023/06/23 00:25:11;;;;;;;14.27;9.07;;;16.70;99.90;;;;;;5077450;28;20202;-82
2023/06/23 00:27:41;;;;;;;10.27;8.60;;;16.70;99.90;;;;;;5077970;28;20309;-82
2023/06/23 00:30:07;;;;;;;12.80;8.37;;;16.70;99.90;;;;;;5078433;28;20270;-82
2023/06/23 00:32:33;;;;;;;10.70;7.97;;;16.70;99.90;;;;;;5076588;28;20585;-83
2023/06/23 00:34:59;;;;;;;10.10;8.80;;;16.60;99.90;;;;;;5097659;28;20190;-83
2023/06/23 00:37:25;;;;;;;12.83;8.97;;;16.60;99.90;;;;;;5099875;28;20219;-83
2023/06/23 00:39:51;;;;;;;11.13;8.30;;;16.70;99.90;;;;;;5099395;28;20170;-82
2023/06/23 00:42:16;;;;;;;10.80;8.43;;;16.60;99.90;;;;;;5098884;28;20254;-82
2023/06/23 00:44:42;;;;;;;10.77;7.93;;;16.50;99.90;;;;;;5097801;28;20642;-82
2023/06/23 00:47:09;;;;;;;11.17;7.30;;;16.60;99.90;;;;;;5100014;28;20209;-82
2023/06/23 00:49:35;;;;;;;10.67;7.73;;;16.70;99.90;;;;;;5099877;28;20182;-83
2023/06/23 00:52:03;;;;;;;10.00;8.17;;;16.60;99.90;;;;;;5098566;28;20251;-82
2023/06/23 00:54:28;;;;;;;10.83;8.00;;;16.70;99.90;;;;;;5097674;28;20221;-82
2023/06/23 00:56:58;;;;;;;11.53;7.40;;;16.70;99.90;;;;;;5099000;28;20170;-82
2023/06/23 00:59:28;;;;;;;11.67;7.50;;;16.70;99.90;;;;;;5099835;28;20542;-82
2023/06/23 01:01:56;;;;;;;10.97;7.97;;;16.70;99.90;;;;;;5097069;28;20178;-82
2023/06/23 01:04:22;;;;;;;9.43;7.43;;;16.70;99.90;;;;;;5098226;28;20214;-82
2023/06/23 01:10:21;;;;;;;9.23;7.20;;;16.70;99.90;;;;;;5099155;28;20220;-82
2023/06/23 01:12:53;;;;;;;9.97;7.47;;;16.60;99.90;;;;;;5097855;28;20257;-82
2023/06/23 01:15:28;;;;;;;10.60;8.03;;;16.60;99.90;;;;;;5085769;28;20190;-82
2023/06/23 01:18:09;;;;;;;13.70;7.57;;;16.60;99.90;;;;;;5077633;28;20159;-81
2023/06/23 01:20:38;;;;;;;11.67;7.40;;;16.60;99.90;;;;;;5077369;28;20169;-82
2023/06/23 01:23:21;;;;;;;11.97;7.83;;;16.60;99.90;;;;;;5077182;28;20694;-82
2023/06/23 01:26:09;;;;;;;11.03;7.53;;;16.50;99.90;;;;;;5076355;28;20194;-82
2023/06/23 01:28:56;;;;;;;11.50;7.40;;;16.50;99.90;;;;;;5075801;28;20572;-82
2023/06/23 01:31:36;;;;;;;10.10;7.43;;;16.50;99.90;;;;;;5077006;28;20166;-81
2023/06/23 01:34:06;;;;;;;11.63;7.37;;;16.50;99.90;;;;;;5083098;28;20269;-82
2023/06/23 01:36:43;;;;;;;9.70;7.07;;;16.50;99.90;;;;;;5098449;28;20154;-82
2023/06/23 01:39:12;;;;;;;9.23;7.13;;;16.60;99.90;;;;;;5097470;28;20636;-82
2023/06/23 01:41:49;;;;;;;10.27;6.87;;;16.60;99.90;;;;;;5098233;28;20167;-82
2023/06/23 01:44:16;;;;;;;14.07;7.97;;;16.60;99.90;;;;;;5086436;28;20198;-82
2023/06/23 01:46:51;;;;;;;15.00;7.67;;;16.60;99.90;;;;;;5077874;28;20253;-82
2023/06/23 01:49:23;;;;;;;10.27;7.57;;;16.60;99.90;;;;;;5076726;28;20170;-82
2023/06/23 01:51:48;;;;;;;11.43;7.27;;;16.60;99.90;;;;;;5078303;28;20201;-81
2023/06/23 01:54:15;;;;;;;8.83;6.63;;;16.60;99.90;;;;;;5090846;28;20206;-82
2023/06/23 01:56:42;;;;;;;8.53;7.43;;;16.50;99.90;;;;;;5096602;28;20176;-83
2023/06/23 01:59:12;;;;;;;14.40;6.80;;;16.50;99.90;;;;;;5098150;28;20216;-82
2023/06/23 02:01:39;;;;;;;8.53;7.43;;;16.50;99.90;;;;;;5097107;28;20182;-82
2023/06/23 02:04:06;;;;;;;10.37;6.40;;;16.50;99.90;;;;;;5084999;28;20210;-83
2023/06/23 02:06:35;;;;;;;13.03;6.77;;;16.50;99.90;;;;;;5077826;28;20171;-82
2023/06/23 02:09:03;;;;;;;8.83;6.97;;;16.50;99.90;;;;;;5076620;28;20228;-82
2023/06/23 02:11:30;;;;;;;7.90;7.10;;;16.50;99.90;;;;;;5078671;28;20170;-82
2023/06/23 02:13:57;;;;;;;10.53;7.43;;;16.50;99.90;;;;;;5096066;28;20202;-82
2023/06/23 02:16:24;;;;;;;8.73;6.97;;;16.50;99.90;;;;;;5098443;28;20167;-82
2023/06/23 02:18:54;;;;;;;7.97;6.87;;;16.50;99.90;;;;;;5096583;28;20535;-83
2023/06/23 02:21:22;;;;;;;7.40;6.47;;;16.50;99.90;;;;;;5096612;28;20171;-82
2023/06/23 02:23:49;;;;;;;11.93;7.13;;;16.50;99.90;;;;;;5096651;28;20216;-82
2023/06/23 02:26:15;;;;;;;8.67;7.00;;;16.50;99.90;;;;;;5096613;28;20236;-82
2023/06/23 02:28:41;;;;;;;9.53;6.90;;;16.60;99.90;;;;;;5096811;28;20569;-82
2023/06/23 02:31:08;;;;;;;11.57;7.10;;;16.50;99.90;;;;;;5095908;28;20186;-83
2023/06/23 02:33:34;;;;;;;8.17;7.00;;;16.50;99.90;;;;;;5090779;28;20198;-83
2023/06/23 02:36:00;;;;;;;12.23;7.17;;;16.50;99.90;;;;;;5077963;28;20171;-82
2023/06/23 02:38:29;;;;;;;12.20;7.33;;;16.60;99.90;;;;;;5094827;28;20167;-81
2023/06/23 02:40:56;;;;;;;8.33;7.10;;;16.60;99.90;;;;;;5095843;28;20166;-82
2023/06/23 02:43:30;;;;;;;8.13;7.00;;;16.60;99.90;;;;;;5097914;28;20289;-82
2023/06/23 02:46:00;;;;;;;10.93;7.17;;;16.50;99.90;;;;;;5098162;28;20166;-81
2023/06/23 02:48:31;;;;;;;10.33;7.37;;;16.50;99.90;;;;;;5097061;28;20171;-82
2023/06/23 02:50:59;;;;;;;11.70;7.60;;;16.50;99.90;;;;;;5097842;28;20266;-82
2023/06/23 02:53:30;;;;;;;12.13;6.87;;;16.50;99.90;;;;;;5097415;28;20202;-82
2023/06/23 02:56:06;;;;;;;17.43;8.40;;;16.50;99.90;;;;;;5097262;28;20523;-82
2023/06/23 02:58:34;;;;;;;10.33;7.37;;;16.50;99.90;;;;;;5099953;28;20196;-82
2023/06/23 03:01:01;;;;;;;12.93;7.60;;;16.50;99.90;;;;;;5101201;28;20539;-80
2023/06/23 03:03:28;;;;;;;15.07;8.23;;;16.50;99.90;;;;;;5099903;28;20210;-82
2023/06/23 03:05:56;;;;;;;12.33;8.30;;;16.50;99.90;;;;;;5102342;28;20170;-82
2023/06/23 03:08:25;;;;;;;14.27;8.30;;;16.50;99.90;;;;;;5100052;28;20197;-82
2023/06/23 03:10:51;;;;;;;14.90;9.10;;;16.40;99.90;;;;;;5100785;28;20232;-82
2023/06/23 03:13:17;;;;;;;15.80;9.13;;;16.40;99.90;;;;;;5100569;28;20228;-83
2023/06/23 03:15:47;;;;;;;16.97;8.90;;;16.40;99.90;;;;;;5083663;28;20183;-82
2023/06/23 03:18:17;;;;;;;16.30;9.47;;;16.40;99.90;;;;;;5083685;28;20167;-83
2023/06/23 03:20:55;;;;;;;16.23;9.97;;;16.40;99.90;;;;;;5083883;28;20170;-83
2023/06/23 03:23:24;;;;;;;14.73;9.60;;;16.40;99.90;;;;;;5093929;28;20246;-82
2023/06/23 03:25:50;;;;;;;18.37;9.23;;;16.40;99.90;;;;;;5101208;28;20190;-83
2023/06/23 03:28:29;;;;;;;18.33;11.10;;;16.30;99.90;;;;;;5100808;28;20178;-82
2023/06/23 03:31:08;;;;;;;14.73;10.33;;;16.30;99.90;;;;;;5101261;28;20186;-81
2023/06/23 03:33:40;;;;;;;15.57;10.03;;;16.40;99.90;;;;;;5101003;28;20210;-81
2023/06/23 03:36:19;;;;;;;16.97;9.63;;;16.30;99.90;;;;;;5100609;28;20552;-81
2023/06/23 03:38:49;;;;;;;18.30;9.83;;;16.30;99.90;;;;;;5101044;28;20197;-82
2023/06/23 03:41:15;;;;;;;16.07;10.07;;;16.30;99.90;;;;;;5101904;28;20194;-81
2023/06/23 03:44:26;;;;;;;17.90;10.07;;;16.30;99.90;;;;;;5100764;28;20205;-82
2023/06/23 03:46:55;;;;;;;18.87;10.57;;;16.30;99.90;;;;;;5094479;28;20219;-80
2023/06/23 03:49:26;;;;;;;18.47;11.27;;;16.30;99.90;;;;;;5104909;28;20219;-82
2023/06/23 03:51:55;;;;;;;14.63;11.63;;;16.30;99.90;;;;;;5106537;28;20169;-82
2023/06/23 03:54:23;;;;;;;13.70;10.93;;;16.30;99.90;;;;;;5105883;28;20221;-81
2023/06/23 03:56:50;;;;;;;13.67;9.97;;;16.30;99.90;;;;;;5105273;28;20166;-81
2023/06/23 03:59:17;;;;;;;17.67;11.07;;;16.30;99.90;;;;;;5102913;28;20223;-81
2023/06/23 04:01:43;;;;;;;16.33;10.50;;;16.30;99.90;;;;;;5103488;28;20166;-81
2023/06/23 04:04:11;;;;;;;15.43;10.67;;;16.30;99.90;;;;;;5101506;28;20206;-81
2023/06/23 04:06:39;;;;;;;16.10;11.03;;;16.30;99.90;;;;;;5103015;28;20167;-82
2023/06/23 04:09:07;;;;;;;13.33;11.03;;;16.40;99.90;;;;;;5101329;28;20178;-81
2023/06/23 04:11:35;;;;;;;15.53;10.60;;;16.40;99.90;;;;;;5103974;28;20174;-82
2023/06/23 04:14:02;;;;;;;15.00;11.47;;;16.40;99.90;;;;;;5103529;28;20213;-82
2023/06/23 04:16:29;;;;;;;15.30;11.43;;;16.40;99.90;;;;;;5102581;28;20208;-82
2023/06/23 04:18:55;;;;;;;15.80;11.30;;;16.30;99.90;;;;;;5104955;28;20192;-82
2023/06/23 04:21:22;;;;;;;15.20;11.70;;;16.40;99.90;;;;;;5103015;28;20590;-81
2023/06/23 04:23:50;;;;;;;12.50;11.20;;;16.30;99.90;;;;;;5104048;28;20221;-82
2023/06/23 04:26:17;;;;;;;13.70;11.50;;;16.30;99.90;;;;;;5104886;28;20220;-82
2023/06/23 04:28:43;;;;;;;13.73;10.93;;;16.30;99.90;;;;;;5106391;28;20182;-82
2023/06/23 04:31:10;;;;;;;16.87;11.93;;;16.40;99.90;;;;;;5104483;28;20181;-82
2023/06/23 04:33:36;;;;;;;17.20;12.27;;;16.40;99.90;;;;;;5107103;28;20221;-82
2023/06/23 04:36:12;;;;;;;18.47;12.17;;;16.40;99.90;;;;;;5105424;28;20179;-81
2023/06/23 04:38:42;;;;;;;14.97;11.30;;;16.30;99.90;;;;;;5104140;28;20177;-81
2023/06/23 04:41:12;;;;;;;15.37;12.20;;;16.50;99.90;;;;;;5104071;28;20178;-81
2023/06/23 04:43:43;;;;;;;19.73;12.37;;;16.40;99.90;;;;;;5106154;28;20361;-81
2023/06/23 04:46:18;;;;;;;15.97;11.87;;;16.50;99.90;;;;;;5105820;28;20185;-80
2023/06/23 04:48:56;;;;;;;14.77;11.40;;;16.60;99.90;;;;;;5103336;28;20236;-81
2023/06/23 04:51:28;;;;;;;15.47;12.73;;;16.60;99.90;;;;;;5106432;28;20158;-82
2023/06/23 04:54:01;;;;;;;18.53;11.90;;;16.60;99.90;;;;;;5106028;28;20577;-81
2023/06/23 04:56:32;;;;;;;17.77;12.70;;;16.70;99.90;;;;;;5106258;28;20282;-81
2023/06/23 04:59:02;;;;;;;19.13;11.93;;;16.60;99.90;;;;;;5105779;28;20270;-81
2023/06/23 05:01:30;;;;;;;17.37;12.53;;;16.70;99.90;;;;;;5107628;28;20154;-81
2023/06/23 05:04:00;;;;;;;15.30;12.20;;;16.80;99.90;;;;;;5108538;28;20263;-81
2023/06/23 05:06:28;;;;;;;16.73;12.50;;;16.70;99.90;;;;;;5105532;28;20182;-82
2023/06/23 05:08:55;;;;;;;18.17;12.63;;;16.70;99.90;;;;;;5105968;28;20182;-81
2023/06/23 05:11:21;;;;;;;16.50;12.83;;;16.60;99.90;;;;;;5106051;28;20204;-81
2023/06/23 05:13:48;;;;;;;18.43;13.10;;;16.70;99.90;;;;;;5105246;28;20197;-81
2023/06/23 05:16:16;;;;;;;21.97;14.00;;;16.70;99.90;;;;;;5105569;28;20182;-81
2023/06/23 05:18:44;;;;;;;17.70;13.53;;;16.70;99.90;;;;;;5107259;28;20177;-81
2023/06/23 05:21:11;;;;;;;16.77;13.10;;;16.80;99.90;;;;;;5107615;28;20177;-80
2023/06/23 05:23:40;;;;;;;17.60;13.40;;;16.80;99.90;;;;;;5109368;28;20249;-81
2023/06/23 05:26:07;;;;;;;20.60;12.90;;;16.80;99.90;;;;;;5107174;28;20186;-81
2023/06/23 05:28:35;;;;;;;17.90;12.77;;;16.80;99.90;;;;;;5106951;28;20590;-81
2023/06/23 05:31:03;;;;;;;19.07;13.70;;;16.90;99.90;;;;;;5103893;28;20599;-81
2023/06/23 05:33:34;;;;;;;20.00;14.80;;;16.80;99.90;;;;;;5080639;28;20209;-81
2023/06/23 05:36:01;;;;;;;17.87;13.33;;;16.90;99.90;;;;;;5083084;28;20602;-81
2023/06/23 05:38:29;;;;;;;19.03;13.70;;;16.90;99.90;;;;;;5099697;28;20179;-81
2023/06/23 05:40:55;;;;;;;17.33;14.00;;;17.00;99.90;;;;;;5102301;28;20178;-82
2023/06/23 05:43:20;;;;;;;18.73;14.47;;;16.90;99.90;;;;;;5101469;28;20198;-82
2023/06/23 05:45:46;;;;;;;25.27;14.50;;;16.90;99.90;;;;;;5105179;28;20178;-82
2023/06/23 05:48:27;;;;;;;19.57;14.67;;;16.90;99.90;;;;;;5104336;28;20209;-81
2023/06/23 05:50:55;;;;;;;21.60;14.20;;;16.90;99.90;;;;;;5103601;28;20189;-82
2023/06/23 05:53:24;;;;;;;16.87;13.87;;;16.80;99.90;;;;;;5108461;28;20206;-83
2023/06/23 05:56:00;;;;;;;17.10;15.10;;;17.00;99.90;;;;;;5106862;28;20182;-82
2023/06/23 05:58:34;;;;;;;23.57;14.77;;;17.00;99.90;;;;;;5105932;28;20170;-82
2023/06/23 06:01:04;;;;;;;18.50;14.87;;;17.00;99.90;;;;;;5107077;28;20537;-82
2023/06/23 06:03:37;;;;;;;18.13;14.23;;;17.00;99.90;;;;;;5109413;28;20204;-82
2023/06/23 06:06:05;;;;;;;23.13;15.07;;;17.10;99.90;;;;;;5110462;28;20174;-83
2023/06/23 06:08:33;;;;;;;18.03;14.67;;;17.10;99.90;;;;;;5111018;28;20174;-82
2023/06/23 06:11:00;;;;;;;19.57;14.70;;;17.20;99.90;;;;;;5113953;28;20174;-82
2023/06/23 06:13:27;;;;;;;17.87;14.20;;;17.30;99.90;;;;;;5116192;28;20194;-83
2023/06/23 06:15:55;;;;;;;21.73;15.07;;;17.20;99.90;;;;;;5116215;28;20242;-82
2023/06/23 06:18:23;;;;;;;20.23;15.00;;;17.40;99.90;;;;;;5108468;28;20178;-82
2023/06/23 06:20:50;;;;;;;19.30;14.90;;;17.20;99.90;;;;;;5106146;28;20220;-83
2023/06/23 06:23:18;;;;;;;19.20;14.47;;;17.20;99.90;;;;;;5108167;28;20191;-82
2023/06/23 06:25:46;;;;;;;20.70;14.27;;;17.30;99.90;;;;;;5108457;28;20597;-83
2023/06/23 06:28:13;;;;;;;17.67;14.07;;;17.30;99.90;;;;;;5106982;28;20193;-82
2023/06/23 06:30:42;;;;;;;21.10;14.43;;;17.60;99.90;;;;;;5110909;28;20230;-82
2023/06/23 06:33:11;;;;;;;18.80;15.07;;;17.50;99.90;;;;;;5115331;28;20201;-82
2023/06/23 06:35:37;;;;;;;24.97;14.07;;;17.60;99.90;;;;;;5117288;28;20158;-82
2023/06/23 06:38:05;;;;;;;17.27;14.03;;;17.60;99.90;;;;;;5117824;28;20181;-83
2023/06/23 06:40:31;;;;;;;17.80;13.07;;;17.70;99.90;;;;;;5114555;28;20151;-83
2023/06/23 06:42:57;;;;;;;16.17;13.33;;;17.80;99.90;;;;;;5118553;28;20197;-82
2023/06/23 06:45:23;;;;;;;17.63;14.07;;;17.80;99.90;;;;;;5118646;28;20236;-82
2023/06/23 06:47:49;;;;;;;19.10;13.43;;;17.90;99.90;;;;;;5116623;28;20177;-82
2023/06/23 06:50:16;;;;;;;21.10;13.33;;;18.00;99.90;;;;;;5119773;28;20183;-81
2023/06/23 06:52:44;;;;;;;15.67;13.03;;;18.00;99.90;;;;;;5121376;28;20178;-84
2023/06/23 06:55:16;;;;;;;15.53;12.97;;;18.00;99.90;;;;;;5116700;28;20183;-83
2023/06/23 06:57:41;;;;;;;20.17;12.70;;;18.00;99.90;;;;;;5121524;28;20171;-81
2023/06/23 07:00:09;;;;;;;17.37;13.73;;;18.10;99.90;;;;;;5119650;28;20186;-83
2023/06/23 07:02:36;;;;;;;16.20;12.23;;;18.10;99.90;;;;;;5119978;28;20162;-81
2023/06/23 07:05:02;;;;;;;16.27;13.20;;;18.20;99.90;;;;;;5120519;28;20174;-83
2023/06/23 07:07:30;;;;;;;19.87;12.40;;;18.30;99.90;;;;;;5119844;28;20182;-82
2023/06/23 07:09:55;;;;;;;15.30;11.90;;;18.30;99.90;;;;;;5120605;28;20159;-81
2023/06/23 07:12:23;;;;;;;18.57;12.93;;;18.40;99.90;;;;;;5120482;28;20198;-81
2023/06/23 07:14:49;;;;;;;18.70;12.77;;;18.40;99.90;;;;;;5119391;28;20229;-83
2023/06/23 07:17:14;;;;;;;17.10;13.10;;;18.50;99.90;;;;;;5119484;28;20174;-81
2023/06/23 07:19:40;;;;;;;16.83;12.50;;;18.40;99.90;;;;;;5119247;28;20249;-80
2023/06/23 07:22:06;;;;;;;16.10;12.33;;;18.50;99.90;;;;;;5117366;28;20179;-79
2023/06/23 07:24:32;;;;;;;15.93;13.33;;;18.50;99.90;;;;;;5118067;28;20206;-78
2023/06/23 07:26:57;;;;;;;17.57;12.73;;;18.60;99.90;;;;;;5111816;28;20195;-78
2023/06/23 07:29:23;;;;;;;18.83;13.47;;;18.60;99.90;;;;;;5116171;28;20190;-77
2023/06/23 07:31:48;;;;;;;14.83;12.23;;;18.60;99.90;;;;;;5116900;28;20174;-78
2023/06/23 07:34:14;;;;;;;15.90;12.17;;;18.60;99.90;;;;;;5117419;28;20261;-78
2023/06/23 07:36:39;;;;;;;16.90;12.60;;;18.60;99.90;;;;;;5117273;28;20178;-79
2023/06/23 07:39:05;;;;;;;16.23;12.47;;;18.70;99.90;;;;;;5112980;28;20201;-80
2023/06/23 07:41:31;;;;;;;17.23;13.23;;;18.80;99.90;;;;;;5110427;28;20182;-79
2023/06/23 07:43:56;;;;;;;16.60;11.67;;;18.80;99.90;;;;;;5109102;28;20204;-79
2023/06/23 07:46:22;;;;;;;14.20;11.27;;;18.80;99.90;;;;;;5109588;28;20196;-79
2023/06/23 07:48:47;;;;;;;15.30;13.07;;;18.90;99.90;;;;;;5110768;28;20193;-79
2023/06/23 07:51:13;;;;;;;16.57;10.70;;;19.00;99.90;;;;;;5109836;28;20185;-80
2023/06/23 07:53:38;;;;;;;13.70;11.33;;;19.10;99.90;;;;;;5109278;28;20225;-79
2023/06/23 07:56:04;;;;;;;19.90;11.70;;;19.10;99.90;;;;;;5108893;28;20174;-79
2023/06/23 07:58:30;;;;;;;14.67;10.80;;;19.20;99.90;;;;;;5110182;28;20174;-80
2023/06/23 08:00:55;;;;;;;15.90;11.23;;;19.20;99.90;;;;;;5110648;28;20610;-80
2023/06/23 08:03:20;;;;;;;13.53;11.20;;;19.20;99.90;;;;;;5111831;28;20214;-80
2023/06/23 08:05:46;;;;;;;14.43;11.03;;;19.30;99.90;;;;;;5111569;28;20223;-80
2023/06/23 08:08:12;;;;;;;13.27;10.47;;;19.30;99.90;;;;;;5110324;28;20181;-79
2023/06/23 08:10:37;;;;;;;13.63;9.87;;;19.40;99.90;;;;;;5109249;28;20235;-79
2023/06/23 08:13:03;;;;;;;13.37;9.37;;;19.50;99.90;;;;;;5108246;28;20614;-78
2023/06/23 08:15:28;;;;;;;11.07;9.93;;;19.50;99.90;;;;;;5110638;28;20285;-79
2023/06/23 08:17:54;;;;;;;14.20;10.07;;;19.50;99.90;;;;;;5108886;28;20174;-81
2023/06/23 08:20:20;;;;;;;14.00;10.23;;;19.60;99.90;;;;;;5107175;28;20209;-80
2023/06/23 08:22:46;;;;;;;12.87;9.33;;;19.60;99.90;;;;;;5108886;28;21534;-79
2023/06/23 08:25:12;;;;;;;10.83;7.90;;;19.70;99.90;;;;;;5073838;28;1040709;-80
2023/06/23 08:27:37;;;;;;;13.33;7.87;;;19.70;99.90;;;;;;5108513;28;20271;-80
2023/06/23 08:30:04;;;;;;;12.17;7.73;;;19.60;99.90;;;;;;5111333;28;20205;-80
2023/06/23 08:32:29;;;;;;;12.47;8.53;;;19.70;99.90;;;;;;5110478;28;20200;-80
2023/06/23 08:34:55;;;;;;;11.13;8.20;;;19.70;99.90;;;;;;5108371;28;20206;-79
2023/06/23 08:37:20;;;;;;;12.33;8.53;;;19.80;99.90;;;;;;5111368;28;20174;-77
2023/06/23 08:39:46;;;;;;;12.83;8.60;;;19.90;99.90;;;;;;5114383;28;20193;-83
2023/06/23 08:42:12;;;;;;;9.03;7.70;;;20.00;99.90;;;;;;5115496;28;20174;-79
2023/06/23 08:44:41;;;;;;;10.63;8.03;;;20.00;99.90;;;;;;5115543;28;20206;-82
2023/06/23 08:47:12;;;;;;;9.10;6.13;;;20.20;99.90;;;;;;5116554;28;20185;-78
2023/06/23 08:49:39;;;;;;;8.50;6.33;;;20.20;99.90;;;;;;5114741;28;20192;-79
2023/06/23 08:52:05;;;;;;;8.30;5.33;;;20.30;99.90;;;;;;5112703;28;20186;-82
2023/06/23 08:54:31;;;;;;;7.83;5.80;;;20.40;1.00;;;;;;5115758;28;20206;-77
2023/06/23 08:56:57;;;;;;;10.30;5.03;;;20.50;1.00;;;;;;5116764;28;20164;-79
2023/06/23 08:59:23;;;;;;;7.63;5.13;;;20.60;1.00;;;;;;5116529;28;20162;-77
2023/06/23 09:01:49;;;;;;;6.03;5.43;;;20.60;1.00;;;;;;5116155;28;20181;-79
2023/06/23 09:04:14;;;;;;;6.70;4.70;;;20.60;1.00;;;;;;5115734;28;20190;-80
2023/06/23 09:06:40;;;;;;;7.93;4.13;;;20.60;1.00;;;;;;5115809;28;20178;-80
2023/06/23 09:09:06;;;;;;;5.93;4.03;;;20.70;1.00;;;;;;5104504;28;20174;-80
2023/06/23 09:11:32;;;;;;;7.60;4.47;;;20.70;1.00;;;;;;5099888;28;20174;-81
2023/06/23 09:13:59;;;;;;;4.67;3.67;;;20.70;1.00;;;;;;5099516;28;20217;-81
2023/06/23 09:16:27;;;;;;;6.53;4.80;;;20.80;1.00;;;;;;5098836;28;20205;-80
2023/06/23 09:18:52;;;;;;;7.00;5.27;;;20.80;1.00;;;;;;5098340;28;20649;-80
2023/06/23 09:21:19;;;;;;;5.57;4.37;;;20.90;1.00;;;;;;5100546;28;20224;-80
2023/06/23 09:24:05;;;;;;;7.17;4.70;;;20.90;1.00;;;;;;5097144;28;20209;-79
2023/06/23 09:26:46;;;;;;;6.27;4.30;;;21.00;1.00;;;;;;5099096;28;20181;-79
2023/06/23 09:29:26;;;;;;;7.63;3.40;;;21.00;1.00;;;;;;5101475;28;20182;-80
2023/06/23 09:31:52;;;;;;;6.53;5.00;;;20.90;1.00;;;;;;5103335;28;20173;-79
2023/06/23 09:34:34;;;;;;;8.23;4.10;;;21.10;99.90;;;;;;5099348;28;20224;-77
2023/06/23 09:37:13;;;;;;;6.00;4.30;;;21.00;1.00;;;;;;5097971;28;20159;-78
2023/06/23 09:39:41;;;;;;;7.23;4.07;;;21.20;1.00;;;;;;5092853;28;20675;-77
2023/06/23 09:42:14;;;;;;;7.03;4.67;;;21.40;99.90;;;;;;5097032;28;20201;-78
2023/06/23 09:44:47;;;;;;;6.80;4.60;;;21.30;1.00;;;;;;5096091;28;20194;-77
2023/06/23 09:47:17;;;;;;;4.70;4.00;;;21.30;99.90;;;;;;5094473;28;20272;-78
2023/06/23 09:49:45;;;;;;;9.83;4.50;;;21.40;1.00;;;;;;5095312;28;20189;-77
2023/06/23 09:52:27;;;;;;;5.23;3.97;;;21.60;1.00;;;;;;5102998;28;20230;-77
2023/06/23 09:54:55;;;;;;;7.00;3.93;;;21.70;1.00;;;;;;5109631;28;20186;-78
2023/06/23 09:57:21;;;;;;;5.73;4.23;;;21.60;1.00;;;;;;5101838;28;20252;-77
2023/06/23 09:59:51;;;;;;;6.17;4.20;;;21.60;1.00;;;;;;5109890;28;20164;-80
2023/06/23 10:02:44;;;;;;;5.80;3.97;;;21.60;1.00;;;;;;5104539;28;20201;-78
2023/06/23 10:05:10;;;;;;;6.43;4.83;;;21.90;1.00;;;;;;5099560;28;20206;-79
2023/06/23 10:07:35;;;;;;;4.80;4.30;;;21.80;99.90;;;;;;5101765;28;20174;-78
2023/06/23 10:10:04;;;;;;;6.80;5.30;;;21.90;99.90;;;;;;5102431;28;20197;-78
2023/06/23 10:12:31;;;;;;;9.13;5.33;;;21.90;99.90;;;;;;5101930;28;20174;-77
2023/06/23 10:14:57;;;;;;;5.10;4.47;;;22.00;99.90;;;;;;5100380;28;20283;-80
2023/06/23 10:17:24;;;;;;;7.73;4.53;;;22.00;99.90;;;;;;5102228;28;20653;-79
2023/06/23 10:19:52;;;;;;;7.13;4.20;;;22.10;1.00;;;;;;5101135;28;20656;-78
2023/06/23 10:22:19;;;;;;;5.77;4.67;;;22.10;1.00;;;;;;5101667;28;20170;-79
2023/06/23 10:24:47;;;;;;;4.77;3.77;;;22.30;99.90;;;;;;5100475;28;20217;-80
2023/06/23 10:27:24;;;;;;;5.00;4.23;;;22.30;99.90;;;;;;5100259;28;20189;-79
2023/06/23 10:29:52;;;;;;;7.37;4.50;;;22.30;99.90;;;;;;5100689;28;20174;-79
2023/06/23 10:32:22;;;;;;;5.70;4.40;;;22.40;99.90;;;;;;5098458;28;20276;-79
2023/06/23 10:34:49;;;;;;;6.00;4.70;;;22.50;99.90;;;;;;5100350;28;20210;-77
2023/06/23 10:37:19;;;;;;;4.50;3.73;;;22.40;99.90;;;;;;5098320;28;20264;-79
2023/06/23 10:39:50;;;;;;;5.53;3.27;;;22.40;99.90;;;;;;5098549;28;20641;-79
2023/06/23 10:42:16;;;;;;;5.90;3.97;;;22.50;99.90;;;;;;5094236;28;20171;-77
2023/06/23 10:44:43;;;;;;;3.83;3.40;;;22.50;99.90;;;;;;5093581;28;20219;-77
2023/06/23 10:47:08;;;;;;;5.83;3.30;;;22.60;99.90;;;;;;5092047;28;20231;-77
2023/06/23 10:49:36;;;;;;;5.27;3.33;;;22.60;68.60;;;;;;5093383;28;20265;-77
2023/06/23 10:52:03;;;;;;;4.27;3.13;;;22.70;1.00;;;;;;5093406;28;20179;-77
2023/06/23 10:54:30;;;;;;;4.47;3.27;;;22.60;1.00;;;;;;5094455;28;20205;-77
2023/06/23 10:56:56;;;;;;;4.43;3.37;;;22.80;1.00;;;;;;5094749;28;20174;-77
2023/06/23 10:59:25;;;;;;;6.47;3.97;;;22.90;9.60;;;;;;5094777;28;20181;-78
2023/06/23 11:02:00;;;;;;;5.20;3.60;;;22.90;99.90;;;;;;5094071;28;20174;-78
2023/06/23 11:04:31;;;;;;;5.10;4.43;;;22.90;1.00;;;;;;5094955;28;20194;-78
2023/06/23 11:07:06;;;;;;;4.90;3.70;;;22.90;1.00;;;;;;5099790;28;20171;-78
2023/06/23 11:09:45;;;;;;;5.00;3.57;;;22.90;1.00;;;;;;5102549;28;20198;-78
2023/06/23 11:12:29;;;;;;;4.60;3.90;;;22.90;1.00;;;;;;5100429;28;20189;-78
2023/06/23 11:15:03;;;;;;;4.57;3.37;;;23.00;1.00;;;;;;5099324;28;20204;-78
2023/06/23 11:17:29;;;;;;;4.73;3.23;;;23.00;1.00;;;;;;5099926;28;20180;-78
2023/06/23 11:19:55;;;;;;;4.47;3.10;;;23.10;1.00;;;;;;5102803;28;20175;-77
2023/06/23 11:22:21;;;;;;;4.23;3.00;;;23.20;1.00;;;;;;5100259;28;20263;-77
2023/06/23 11:24:53;;;;;;;5.03;3.37;;;23.20;1.00;;;;;;5104633;28;20213;-78
2023/06/23 11:27:19;;;;;;;3.27;2.57;;;23.10;1.00;;;;;;5102890;28;20178;-78
2023/06/23 11:30:17;;;;;;;3.50;2.80;;;23.20;1.00;;;;;;5105251;28;20170;-79
2023/06/23 11:32:43;;;;;;;3.73;3.03;;;23.40;1.00;;;;;;5068249;28;20571;-77
2023/06/23 11:35:09;;;;;;;5.17;3.63;;;23.40;1.00;;;;;;5096493;28;20198;-77
2023/06/23 11:37:36;;;;;;;5.27;3.17;;;23.40;1.00;;;;;;5098344;28;20178;-77
2023/06/23 11:40:03;;;;;;;3.97;2.57;;;23.30;1.00;;;;;;5097154;28;20219;-77
2023/06/23 11:42:29;;;;;;;3.60;2.80;;;23.40;1.00;;;;;;5097905;28;20549;-77
2023/06/23 11:44:58;;;;;;;3.17;2.60;;;23.50;1.00;;;;;;5097287;28;20178;-77
2023/06/23 11:47:28;;;;;;;3.23;2.63;;;23.70;1.00;;;;;;5097182;28;20637;-77
2023/06/23 11:49:54;;;;;;;3.47;2.90;;;23.70;1.00;;;;;;5097129;28;20169;-77
2023/06/23 11:52:20;;;;;;;4.67;3.03;;;23.80;1.00;;;;;;5099586;28;20252;-77
2023/06/23 11:54:48;;;;;;;3.63;2.67;;;23.80;1.00;;;;;;5097363;28;20221;-78
2023/06/23 11:57:18;;;;;;;2.97;2.63;;;23.80;99.90;;;;;;5094329;28;20175;-78
2023/06/23 11:59:44;;;;;;;4.73;3.03;;;23.80;99.90;;;;;;5078443;28;20175;-77
2023/06/23 12:02:10;;;;;;;3.20;2.90;;;23.90;99.90;;;;;;5076579;28;20668;-77
2023/06/23 12:04:36;;;;;;;2.20;2.00;;;24.00;99.90;;;;;;5078279;28;20199;-78
2023/06/23 12:07:03;;;;;;;2.67;2.43;;;24.00;1.00;;;;;;5081969;28;20221;-78
2023/06/23 12:09:30;;;;;;;3.13;2.70;;;24.10;99.90;;;;;;5083098;28;20209;-78
2023/06/23 12:11:57;;;;;;;6.80;2.70;;;24.00;99.90;;;;;;5079403;28;20183;-77
2023/06/23 12:14:30;;;;;;;6.17;2.60;;;24.10;1.00;;;;;;5076828;28;20211;-77
2023/06/23 12:17:11;;;;;;;3.10;2.57;;;24.10;1.00;;;;;;5078904;28;20171;-77
2023/06/23 12:19:38;;;;;;;2.97;2.10;;;24.30;99.90;;;;;;5078342;28;20151;-78
2023/06/23 12:22:12;;;;;;;2.70;2.50;;;24.40;99.90;;;;;;5078170;28;20175;-77
2023/06/23 12:24:38;;;;;;;3.40;2.50;;;24.50;99.90;;;;;;5073708;28;20262;-77
2023/06/23 12:27:04;;;;;;;3.03;2.40;;;24.50;99.90;;;;;;5075648;28;20211;-77
2023/06/23 12:29:33;;;;;;;4.80;2.93;;;24.60;1.00;;;;;;5074253;28;20704;-77
2023/06/23 12:31:59;;;;;;;5.77;3.70;;;24.70;99.90;;;;;;5075163;28;20175;-77
2023/06/23 12:34:35;;;;;;;5.33;2.70;;;24.50;99.90;;;;;;5073631;28;20290;-76
2023/06/23 12:37:02;;;;;;;3.27;2.67;;;24.40;1.00;;;;;;5074742;28;20666;-76
2023/06/23 12:39:32;;;;;;;3.47;2.83;;;24.50;99.90;;;;;;5074300;28;20266;-77
2023/06/23 12:41:58;;;;;;;3.53;2.73;;;24.60;99.90;;;;;;5076114;28;20174;-77
2023/06/23 12:44:26;;;;;;;4.77;2.80;;;24.70;1.00;;;;;;5076416;28;20773;-77
2023/06/23 12:46:54;;;;;;;4.33;3.43;;;24.90;1.00;;;;;;5073697;28;20269;-77
2023/06/23 12:49:21;;;;;;;6.73;2.90;;;24.90;99.90;;;;;;5073075;28;20178;-77